sensor_id;sensor_type;location;lat;lon;timestamp;pressure;altitude;pressure_sealevel;temperature;humidity
72210;BME280;60113;48.762;12.302;2022-10-15T00:01:13;96803.53;;;11.62;88.74
72210;BME280;60113;48.762;12.302;2022-10-15T00:03:41;96803.66;;;11.60;89.19
72210;BME280;60113;48.762;12.302;2022-10-15T00:06:16;96797.69;;;11.58;91.58
72210;BME280;60113;48.762;12.302;2022-10-15T00:08:42;96788.28;;;11.56;92.06
72210;BME280;60113;48.762;12.302;2022-10-15T00:11:11;96786.63;;;11.55;92.19
72210;BME280;60113;48.762;12.302;2022-10-15T00:13:38;96795.47;;;11.54;90.58
72210;BME280;60113;48.762;12.302;2022-10-15T00:16:06;96791.03;;;11.54;90.99
72210;BME280;60113;48.762;12.302;2022-10-15T00:18:32;96785.78;;;11.54;91.61
72210;BME280;60113;48.762;12.302;2022-10-15T00:20:57;96786.75;;;11.53;91.09
72210;BME280;60113;48.762;12.302;2022-10-15T00:23:23;96800.03;;;11.52;89.48
72210;BME280;60113;48.762;12.302;2022-10-15T00:25:48;96787.03;;;11.50;89.88
72210;BME280;60113;48.762;12.302;2022-10-15T00:28:14;96789.66;;;11.50;89.79
72210;BME280;60113;48.762;12.302;2022-10-15T00:30:40;96783.53;;;11.49;90.92
72210;BME280;60113;48.762;12.302;2022-10-15T00:33:05;96782.84;;;11.47;90.03
72210;BME280;60113;48.762;12.302;2022-10-15T00:35:31;96789.06;;;11.46;89.59
72210;BME280;60113;48.762;12.302;2022-10-15T00:37:56;96782.97;;;11.46;90.17
72210;BME280;60113;48.762;12.302;2022-10-15T00:40:21;96769.00;;;11.45;89.70
72210;BME280;60113;48.762;12.302;2022-10-15T00:42:47;96770.09;;;11.43;91.79
72210;BME280;60113;48.762;12.302;2022-10-15T00:45:14;96769.00;;;11.45;94.42
72210;BME280;60113;48.762;12.302;2022-10-15T00:47:47;96758.63;;;11.44;94.07
72210;BME280;60113;48.762;12.302;2022-10-15T00:50:22;96749.75;;;11.45;94.57
72210;BME280;60113;48.762;12.302;2022-10-15T00:55:32;96775.22;;;11.44;92.75
72210;BME280;60113;48.762;12.302;2022-10-15T00:58:04;96763.03;;;11.43;91.75
72210;BME280;60113;48.762;12.302;2022-10-15T01:00:30;96750.84;;;11.42;93.08
72210;BME280;60113;48.762;12.302;2022-10-15T01:02:55;96727.31;;;11.41;93.36
72210;BME280;60113;48.762;12.302;2022-10-15T01:05:22;96729.09;;;11.40;94.86
72210;BME280;60113;48.762;12.302;2022-10-15T01:07:47;96729.09;;;11.40;94.42
72210;BME280;60113;48.762;12.302;2022-10-15T01:10:13;96736.16;;;11.40;92.58
72210;BME280;60113;48.762;12.302;2022-10-15T01:15:33;96741.28;;;11.41;93.37
72210;BME280;60113;48.762;12.302;2022-10-15T01:18:09;96743.25;;;11.39;92.42
72210;BME280;60113;48.762;12.302;2022-10-15T01:21:02;96731.75;;;11.40;93.33
72210;BME280;60113;48.762;12.302;2022-10-15T01:29:42;96723.56;;;11.33;91.48
72210;BME280;60113;48.762;12.302;2022-10-15T01:32:48;96729.66;;;11.34;93.38
72210;BME280;60113;48.762;12.302;2022-10-15T01:38:04;96715.69;;;11.33;92.92
72210;BME280;60113;48.762;12.302;2022-10-15T01:40:46;96709.72;;;11.31;93.28
72210;BME280;60113;48.762;12.302;2022-10-15T01:43:20;96701.69;;;11.33;93.67
72210;BME280;60113;48.762;12.302;2022-10-15T01:45:57;96699.06;;;11.33;93.64
72210;BME280;60113;48.762;12.302;2022-10-15T01:48:26;96695.44;;;11.34;94.76
72210;BME280;60113;48.762;12.302;2022-10-15T01:50:55;96697.09;;;11.35;93.92
72210;BME280;60113;48.762;12.302;2022-10-15T01:53:25;96689.22;;;11.35;94.86
72210;BME280;60113;48.762;12.302;2022-10-15T01:56:00;96694.34;;;11.36;94.32
72210;BME280;60113;48.762;12.302;2022-10-15T01:58:28;96676.91;;;11.35;93.99
72210;BME280;60113;48.762;12.302;2022-10-15T02:00:56;96686.59;;;11.35;93.67
72210;BME280;60113;48.762;12.302;2022-10-15T02:03:22;96685.78;;;11.34;94.31
72210;BME280;60113;48.762;12.302;2022-10-15T02:06:05;96676.78;;;11.37;94.98
72210;BME280;60113;48.762;12.302;2022-10-15T02:08:47;96673.28;;;11.36;95.15
72210;BME280;60113;48.762;12.302;2022-10-15T02:11:17;96678.41;;;11.38;96.65
72210;BME280;60113;48.762;12.302;2022-10-15T02:18:56;96664.47;;;11.37;96.02
72210;BME280;60113;48.762;12.302;2022-10-15T02:21:29;96665.28;;;11.38;95.61
72210;BME280;60113;48.762;12.302;2022-10-15T02:24:24;96658.09;;;11.40;97.09
72210;BME280;60113;48.762;12.302;2022-10-15T02:26:55;96645.06;;;11.38;96.74
72210;BME280;60113;48.762;12.302;2022-10-15T02:29:25;96653.81;;;11.39;96.57
72210;BME280;60113;48.762;12.302;2022-10-15T02:31:53;96661.81;;;11.37;96.96
72210;BME280;60113;48.762;12.302;2022-10-15T02:34:21;96654.75;;;11.38;97.04
72210;BME280;60113;48.762;12.302;2022-10-15T02:36:50;96646.03;;;11.37;97.03
72210;BME280;60113;48.762;12.302;2022-10-15T02:39:21;96659.34;;;11.36;95.69
72210;BME280;60113;48.762;12.302;2022-10-15T02:41:49;96653.38;;;11.34;96.15
72210;BME280;60113;48.762;12.302;2022-10-15T02:44:15;96643.81;;;11.33;96.23
72210;BME280;60113;48.762;12.302;2022-10-15T02:46:41;96647.31;;;11.33;97.03
72210;BME280;60113;48.762;12.302;2022-10-15T02:49:06;96656.97;;;11.33;96.14
72210;BME280;60113;48.762;12.302;2022-10-15T02:51:33;96652.56;;;11.33;95.89
72210;BME280;60113;48.762;12.302;2022-10-15T02:54:00;96650.75;;;11.34;96.85
72210;BME280;60113;48.762;12.302;2022-10-15T02:56:26;96639.53;;;11.32;96.30
72210;BME280;60113;48.762;12.302;2022-10-15T02:58:51;96646.59;;;11.31;95.79
72210;BME280;60113;48.762;12.302;2022-10-15T03:01:17;96646.72;;;11.30;96.02
72210;BME280;60113;48.762;12.302;2022-10-15T03:03:42;96641.59;;;11.28;95.06
72210;BME280;60113;48.762;12.302;2022-10-15T03:06:08;96632.88;;;11.28;95.39
72210;BME280;60113;48.762;12.302;2022-10-15T03:08:33;96636.47;;;11.27;95.57
72210;BME280;60113;48.762;12.302;2022-10-15T03:11:00;96637.31;;;11.27;96.60
72210;BME280;60113;48.762;12.302;2022-10-15T03:13:26;96637.31;;;11.27;97.13
72210;BME280;60113;48.762;12.302;2022-10-15T03:15:52;96637.47;;;11.25;96.44
72210;BME280;60113;48.762;12.302;2022-10-15T03:18:17;96635.78;;;11.24;96.32
72210;BME280;60113;48.762;12.302;2022-10-15T03:20:43;96648.94;;;11.24;97.03
72210;BME280;60113;48.762;12.302;2022-10-15T03:23:09;96633.41;;;11.21;96.56
72210;BME280;60113;48.762;12.302;2022-10-15T03:25:35;96631.75;;;11.20;97.55
72210;BME280;60113;48.762;12.302;2022-10-15T03:28:01;96632.88;;;11.18;96.37
72210;BME280;60113;48.762;12.302;2022-10-15T03:30:26;96638.13;;;11.18;96.77
72210;BME280;60113;48.762;12.302;2022-10-15T03:32:52;96633.97;;;11.15;96.89
72210;BME280;60113;48.762;12.302;2022-10-15T03:35:17;96633.16;;;11.15;96.73
72210;BME280;60113;48.762;12.302;2022-10-15T03:37:43;96634.94;;;11.14;96.59
72210;BME280;60113;48.762;12.302;2022-10-15T03:40:09;96628.84;;;11.13;97.03
72210;BME280;60113;48.762;12.302;2022-10-15T03:42:34;96628.03;;;11.13;97.20
72210;BME280;60113;48.762;12.302;2022-10-15T03:45:00;96627.19;;;11.12;97.27
72210;BME280;60113;48.762;12.302;2022-10-15T03:47:25;96630.78;;;11.11;97.16
72210;BME280;60113;48.762;12.302;2022-10-15T03:49:51;96623.72;;;11.12;96.39
72210;BME280;60113;48.762;12.302;2022-10-15T03:52:16;96628.97;;;11.12;96.64
72210;BME280;60113;48.762;12.302;2022-10-15T03:54:42;96628.03;;;11.13;97.88
72210;BME280;60113;48.762;12.302;2022-10-15T03:57:07;96620.13;;;11.13;97.10
72210;BME280;60113;48.762;12.302;2022-10-15T03:59:33;96627.88;;;11.15;96.46
72210;BME280;60113;48.762;12.302;2022-10-15T04:01:58;96621.94;;;11.12;97.00
72210;BME280;60113;48.762;12.302;2022-10-15T04:04:24;96616.66;;;11.12;97.52
72210;BME280;60113;48.762;12.302;2022-10-15T04:06:49;96621.66;;;11.16;96.56
72210;BME280;60113;48.762;12.302;2022-10-15T04:09:15;96609.50;;;11.15;97.14
72210;BME280;60113;48.762;12.302;2022-10-15T04:11:40;96614.75;;;11.15;96.90
72210;BME280;60113;48.762;12.302;2022-10-15T04:14:07;96608.38;;;11.17;97.20
72210;BME280;60113;48.762;12.302;2022-10-15T04:16:32;96613.78;;;11.16;97.08
72210;BME280;60113;48.762;12.302;2022-10-15T04:18:58;96609.34;;;11.16;97.35
72210;BME280;60113;48.762;12.302;2022-10-15T04:21:24;96609.22;;;11.18;98.15
72210;BME280;60113;48.762;12.302;2022-10-15T04:23:50;96609.06;;;11.19;99.16
72210;BME280;60113;48.762;12.302;2022-10-15T04:26:16;96598.56;;;11.19;97.42
72210;BME280;60113;48.762;12.302;2022-10-15T04:28:43;96605.34;;;11.22;97.79
72210;BME280;60113;48.762;12.302;2022-10-15T04:31:09;96592.19;;;11.22;97.41
72210;BME280;60113;48.762;12.302;2022-10-15T04:33:34;96605.34;;;11.22;97.44
72210;BME280;60113;48.762;12.302;2022-10-15T04:36:06;96600.91;;;11.22;97.38
72210;BME280;60113;48.762;12.302;2022-10-15T04:38:32;96598.28;;;11.22;97.52
72210;BME280;60113;48.762;12.302;2022-10-15T04:41:03;96597.16;;;11.25;97.22
72210;BME280;60113;48.762;12.302;2022-10-15T04:43:31;96603.28;;;11.25;97.06
72210;BME280;60113;48.762;12.302;2022-10-15T04:45:58;96592.47;;;11.29;98.01
72210;BME280;60113;48.762;12.302;2022-10-15T04:48:26;96594.25;;;11.28;98.49
72210;BME280;60113;48.762;12.302;2022-10-15T04:50:51;96600.22;;;11.30;98.24
72210;BME280;60113;48.762;12.302;2022-10-15T04:53:17;96604.66;;;11.30;97.37
72210;BME280;60113;48.762;12.302;2022-10-15T04:55:42;96607.97;;;11.32;98.48
72210;BME280;60113;48.762;12.302;2022-10-15T04:58:08;96600.09;;;11.32;97.67
72210;BME280;60113;48.762;12.302;2022-10-15T05:00:33;96598.28;;;11.32;98.13
72210;BME280;60113;48.762;12.302;2022-10-15T05:03:01;96590.25;;;11.34;98.08
72210;BME280;60113;48.762;12.302;2022-10-15T05:05:26;96594.69;;;11.33;97.79
72210;BME280;60113;48.762;12.302;2022-10-15T05:07:52;96591.09;;;11.34;97.96
72210;BME280;60113;48.762;12.302;2022-10-15T05:10:17;96591.09;;;11.34;98.13
72210;BME280;60113;48.762;12.302;2022-10-15T05:12:43;96583.06;;;11.36;98.82
72210;BME280;60113;48.762;12.302;2022-10-15T05:15:11;96586.50;;;11.36;98.83
72210;BME280;60113;48.762;12.302;2022-10-15T05:17:38;96584.72;;;11.37;98.46
72210;BME280;60113;48.762;12.302;2022-10-15T05:20:04;96583.06;;;11.36;98.53
72210;BME280;60113;48.762;12.302;2022-10-15T05:22:30;96585.69;;;11.36;98.06
72210;BME280;60113;48.762;12.302;2022-10-15T05:24:56;96588.31;;;11.36;97.27
72210;BME280;60113;48.762;12.302;2022-10-15T05:27:21;96582.06;;;11.37;97.13
72210;BME280;60113;48.762;12.302;2022-10-15T05:29:47;96586.34;;;11.38;97.19
72210;BME280;60113;48.762;12.302;2022-10-15T05:32:12;96589.84;;;11.38;97.84
72210;BME280;60113;48.762;12.302;2022-10-15T05:34:38;96587.19;;;11.38;96.82
72210;BME280;60113;48.762;12.302;2022-10-15T05:37:03;96589.69;;;11.40;97.91
72210;BME280;60113;48.762;12.302;2022-10-15T05:39:29;96584.28;;;11.42;97.70
72210;BME280;60113;48.762;12.302;2022-10-15T05:41:55;96582.38;;;11.44;97.90
72210;BME280;60113;48.762;12.302;2022-10-15T05:44:20;96583.19;;;11.44;98.27
72210;BME280;60113;48.762;12.302;2022-10-15T05:46:46;96588.31;;;11.46;98.78
72210;BME280;60113;48.762;12.302;2022-10-15T05:49:11;96584.72;;;11.47;98.86
72210;BME280;60113;48.762;12.302;2022-10-15T05:51:37;96588.03;;;11.49;99.41
72210;BME280;60113;48.762;12.302;2022-10-15T05:54:03;96585.25;;;11.50;99.37
72210;BME280;60113;48.762;12.302;2022-10-15T05:56:28;96587.75;;;11.52;98.93
72210;BME280;60113;48.762;12.302;2022-10-15T05:58:56;96592.88;;;11.54;99.30
72210;BME280;60113;48.762;12.302;2022-10-15T06:01:22;96584.84;;;11.55;100.00
72210;BME280;60113;48.762;12.302;2022-10-15T06:03:48;96591.91;;;11.55;98.00
72210;BME280;60113;48.762;12.302;2022-10-15T06:06:15;96588.16;;;11.57;98.19
72210;BME280;60113;48.762;12.302;2022-10-15T06:08:41;96596.75;;;11.59;97.91
72210;BME280;60113;48.762;12.302;2022-10-15T06:11:07;96605.47;;;11.60;99.47
72210;BME280;60113;48.762;12.302;2022-10-15T06:13:34;96601.75;;;11.62;98.20
72210;BME280;60113;48.762;12.302;2022-10-15T06:16:02;96600.75;;;11.63;98.40
72210;BME280;60113;48.762;12.302;2022-10-15T06:18:31;96605.03;;;11.65;98.64
72210;BME280;60113;48.762;12.302;2022-10-15T06:21:16;96611.16;;;11.65;99.52
72210;BME280;60113;48.762;12.302;2022-10-15T06:23:47;96610.16;;;11.66;98.86
72210;BME280;60113;48.762;12.302;2022-10-15T06:26:12;96613.50;;;11.68;99.34
72210;BME280;60113;48.762;12.302;2022-10-15T06:28:38;96622.09;;;11.70;97.96
72210;BME280;60113;48.762;12.302;2022-10-15T06:31:04;96628.03;;;11.72;98.04
72210;BME280;60113;48.762;12.302;2022-10-15T06:33:30;96632.22;;;11.75;97.33
72210;BME280;60113;48.762;12.302;2022-10-15T06:36:07;96629.03;;;11.81;98.27
72210;BME280;60113;48.762;12.302;2022-10-15T06:38:34;96634.16;;;11.83;97.60
72210;BME280;60113;48.762;12.302;2022-10-15T06:41:03;96632.88;;;11.87;97.67
72210;BME280;60113;48.762;12.302;2022-10-15T06:43:29;96638.56;;;11.92;96.93
72210;BME280;60113;48.762;12.302;2022-10-15T06:45:57;96646.84;;;11.97;98.40
72210;BME280;60113;48.762;12.302;2022-10-15T06:48:23;96637.03;;;11.99;99.21
72210;BME280;60113;48.762;12.302;2022-10-15T06:50:49;96649.91;;;12.03;98.11
72210;BME280;60113;48.762;12.302;2022-10-15T06:53:15;96654.78;;;12.07;97.55
72210;BME280;60113;48.762;12.302;2022-10-15T06:55:41;96651.88;;;12.10;98.90
72210;BME280;60113;48.762;12.302;2022-10-15T06:58:06;96660.16;;;12.16;99.20
72210;BME280;60113;48.762;12.302;2022-10-15T07:00:32;96667.50;;;12.22;99.44
72210;BME280;60113;48.762;12.302;2022-10-15T07:03:05;96660.56;;;12.31;99.66
72210;BME280;60113;48.762;12.302;2022-10-15T07:05:31;96668.84;;;12.36;100.00
72210;BME280;60113;48.762;12.302;2022-10-15T07:07:57;96675.91;;;12.45;100.00
72210;BME280;60113;48.762;12.302;2022-10-15T07:10:24;96679.38;;;12.56;100.00
72210;BME280;60113;48.762;12.302;2022-10-15T07:12:51;96675.16;;;12.63;100.00
72210;BME280;60113;48.762;12.302;2022-10-15T07:15:17;96686.63;;;12.72;100.00
72210;BME280;60113;48.762;12.302;2022-10-15T07:17:48;96695.75;;;12.87;100.00
72210;BME280;60113;48.762;12.302;2022-10-15T07:20:14;96688.66;;;12.88;100.00
72210;BME280;60113;48.762;12.302;2022-10-15T07:22:40;96691.53;;;12.95;100.00
72210;BME280;60113;48.762;12.302;2022-10-15T07:25:06;96692.09;;;12.98;100.00
72210;BME280;60113;48.762;12.302;2022-10-15T07:27:34;96704.13;;;13.01;100.00
72210;BME280;60113;48.762;12.302;2022-10-15T07:29:59;96701.22;;;13.04;100.00
72210;BME280;60113;48.762;12.302;2022-10-15T07:32:25;96706.34;;;13.06;100.00
72210;BME280;60113;48.762;12.302;2022-10-15T07:34:50;96712.03;;;13.11;100.00
72210;BME280;60113;48.762;12.302;2022-10-15T07:37:16;96702.97;;;13.13;100.00
72210;BME280;60113;48.762;12.302;2022-10-15T07:39:41;96709.78;;;13.16;100.00
72210;BME280;60113;48.762;12.302;2022-10-15T07:42:07;96708.50;;;13.20;100.00
72210;BME280;60113;48.762;12.302;2022-10-15T07:44:32;96710.72;;;13.25;100.00
72210;BME280;60113;48.762;12.302;2022-10-15T07:46:58;96719.03;;;13.30;100.00
72210;BME280;60113;48.762;12.302;2022-10-15T07:49:23;96715.09;;;13.34;99.87
72210;BME280;60113;48.762;12.302;2022-10-15T07:51:49;96721.88;;;13.37;100.00
72210;BME280;60113;48.762;12.302;2022-10-15T07:54:15;96732.00;;;13.42;100.00
72210;BME280;60113;48.762;12.302;2022-10-15T07:56:40;96728.38;;;13.43;100.00
72210;BME280;60113;48.762;12.302;2022-10-15T07:59:07;96737.66;;;13.47;100.00
72210;BME280;60113;48.762;12.302;2022-10-15T08:01:33;96737.41;;;13.50;99.41
72210;BME280;60113;48.762;12.302;2022-10-15T08:04:00;96732.34;;;13.57;99.61
72210;BME280;60113;48.762;12.302;2022-10-15T08:06:25;96737.88;;;13.63;99.86
72210;BME280;60113;48.762;12.302;2022-10-15T08:08:51;96728.50;;;13.69;99.32
72210;BME280;60113;48.762;12.302;2022-10-15T08:11:17;96734.19;;;13.74;99.03
72210;BME280;60113;48.762;12.302;2022-10-15T08:13:43;96735.22;;;13.82;98.61
72210;BME280;60113;48.762;12.302;2022-10-15T08:16:12;96742.56;;;13.88;98.40
72210;BME280;60113;48.762;12.302;2022-10-15T08:18:39;96742.41;;;13.90;98.73
72210;BME280;60113;48.762;12.302;2022-10-15T08:21:05;96746.56;;;13.92;98.79
72210;BME280;60113;48.762;12.302;2022-10-15T08:23:32;96756.16;;;13.93;98.41
72210;BME280;60113;48.762;12.302;2022-10-15T08:25:58;96758.78;;;13.93;98.76
72210;BME280;60113;48.762;12.302;2022-10-15T08:28:28;96761.44;;;13.93;98.88
72210;BME280;60113;48.762;12.302;2022-10-15T08:30:59;96761.44;;;13.93;98.83
72210;BME280;60113;48.762;12.302;2022-10-15T08:33:25;96767.56;;;13.94;98.86
72210;BME280;60113;48.762;12.302;2022-10-15T08:35:51;96771.84;;;13.95;98.68
72210;BME280;60113;48.762;12.302;2022-10-15T08:38:17;96776.97;;;13.96;98.10
72210;BME280;60113;48.762;12.302;2022-10-15T08:40:48;96776.69;;;13.99;98.09
72210;BME280;60113;48.762;12.302;2022-10-15T08:43:22;96778.03;;;14.04;98.11
72210;BME280;60113;48.762;12.302;2022-10-15T08:45:51;96774.25;;;14.06;97.94
72210;BME280;60113;48.762;12.302;2022-10-15T08:48:23;96775.47;;;14.12;97.14
72210;BME280;60113;48.762;12.302;2022-10-15T08:51:02;96773.72;;;14.21;97.64
72210;BME280;60113;48.762;12.302;2022-10-15T08:53:38;96784.00;;;14.24;97.54
72210;BME280;60113;48.762;12.302;2022-10-15T08:56:14;96793.13;;;14.30;97.28
72210;BME280;60113;48.762;12.302;2022-10-15T08:58:48;96796.31;;;14.33;96.60
72210;BME280;60113;48.762;12.302;2022-10-15T09:01:31;96797.81;;;14.36;97.01
72210;BME280;60113;48.762;12.302;2022-10-15T09:06:35;96805.06;;;14.34;96.35
72210;BME280;60113;48.762;12.302;2022-10-15T09:12:00;96802.56;;;14.32;96.49
72210;BME280;60113;48.762;12.302;2022-10-15T09:14:32;96814.94;;;14.32;96.00
72210;BME280;60113;48.762;12.302;2022-10-15T09:17:03;96815.78;;;14.32;95.96
72210;BME280;60113;48.762;12.302;2022-10-15T09:19:30;96822.72;;;14.33;96.58
72210;BME280;60113;48.762;12.302;2022-10-15T09:22:00;96827.03;;;14.34;95.75
72210;BME280;60113;48.762;12.302;2022-10-15T09:24:28;96824.22;;;14.36;96.45
72210;BME280;60113;48.762;12.302;2022-10-15T09:29:53;96833.53;;;14.40;96.47
72210;BME280;60113;48.762;12.302;2022-10-15T09:32:30;96840.31;;;14.43;96.24
72210;BME280;60113;48.762;12.302;2022-10-15T09:42:54;96845.84;;;14.49;95.43
72210;BME280;60113;48.762;12.302;2022-10-15T09:45:21;96843.84;;;14.52;95.09
72210;BME280;60113;48.762;12.302;2022-10-15T09:47:51;96847.19;;;14.54;94.99
72210;BME280;60113;48.762;12.302;2022-10-15T09:50:16;96846.03;;;14.56;94.77
72210;BME280;60113;48.762;12.302;2022-10-15T09:55:34;96857.53;;;14.65;94.70
72210;BME280;60113;48.762;12.302;2022-10-15T09:58:04;96858.88;;;14.69;94.30
72210;BME280;60113;48.762;12.302;2022-10-15T10:00:59;96862.72;;;14.75;94.69
72210;BME280;60113;48.762;12.302;2022-10-15T10:03:28;96864.94;;;14.80;94.39
72210;BME280;60113;48.762;12.302;2022-10-15T10:06:04;96863.00;;;14.82;94.62
72210;BME280;60113;48.762;12.302;2022-10-15T10:08:36;96870.63;;;14.85;93.68
72210;BME280;60113;48.762;12.302;2022-10-15T10:11:08;96871.13;;;14.88;93.91
72210;BME280;60113;48.762;12.302;2022-10-15T10:13:57;96872.66;;;14.91;93.21
72210;BME280;60113;48.762;12.302;2022-10-15T10:16:24;96874.53;;;14.99;94.00
72210;BME280;60113;48.762;12.302;2022-10-15T10:19:16;96864.81;;;15.08;94.38
72210;BME280;60113;48.762;12.302;2022-10-15T10:21:42;96868.19;;;15.18;93.45
72210;BME280;60113;48.762;12.302;2022-10-15T10:26:46;96863.56;;;15.47;93.78
72210;BME280;60113;48.762;12.302;2022-10-15T10:29:18;96860.50;;;15.68;92.97
72210;BME280;60113;48.762;12.302;2022-10-15T10:31:46;96861.94;;;15.89;92.58
72210;BME280;60113;48.762;12.302;2022-10-15T10:34:26;96868.63;;;16.10;90.66
72210;BME280;60113;48.762;12.302;2022-10-15T10:36:53;96866.53;;;16.30;90.63
72210;BME280;60113;48.762;12.302;2022-10-15T10:39:24;96870.00;;;16.39;90.62
72210;BME280;60113;48.762;12.302;2022-10-15T10:41:57;96875.50;;;16.46;90.38
72210;BME280;60113;48.762;12.302;2022-10-15T10:44:36;96879.81;;;16.47;89.36
72210;BME280;60113;48.762;12.302;2022-10-15T10:47:19;96875.34;;;16.47;87.17
72210;BME280;60113;48.762;12.302;2022-10-15T10:49:54;96879.00;;;16.46;87.84
72210;BME280;60113;48.762;12.302;2022-10-15T10:52:29;96885.44;;;16.44;89.10
72210;BME280;60113;48.762;12.302;2022-10-15T10:57:45;96882.13;;;16.42;86.16
72210;BME280;60113;48.762;12.302;2022-10-15T11:00:25;96889.44;;;16.48;86.27
72210;BME280;60113;48.762;12.302;2022-10-15T11:02:55;96878.00;;;16.64;88.82
72210;BME280;60113;48.762;12.302;2022-10-15T11:05:26;96878.84;;;16.81;88.76
72210;BME280;60113;48.762;12.302;2022-10-15T11:08:17;96878.34;;;16.94;87.98
72210;BME280;60113;48.762;12.302;2022-10-15T11:11:04;96879.00;;;16.88;85.16
72210;BME280;60113;48.762;12.302;2022-10-15T11:16:34;96876.34;;;16.80;86.65
72210;BME280;60113;48.762;12.302;2022-10-15T11:19:20;96876.34;;;16.71;87.82
72210;BME280;60113;48.762;12.302;2022-10-15T11:22:42;96883.97;;;16.58;86.11
72210;BME280;60113;48.762;12.302;2022-10-15T11:24:59;96877.81;;;16.49;87.78
72210;BME280;60113;48.762;12.302;2022-10-15T11:28:05;96876.00;;;16.41;86.71
72210;BME280;60113;48.762;12.302;2022-10-15T11:33:18;96867.91;;;16.51;88.39
72210;BME280;60113;48.762;12.302;2022-10-15T11:36:00;96873.38;;;16.66;88.16
72210;BME280;60113;48.762;12.302;2022-10-15T11:46:19;96868.78;;;17.58;87.69
72210;BME280;60113;48.762;12.302;2022-10-15T11:54:36;96864.56;;;17.81;82.16
72210;BME280;60113;48.762;12.302;2022-10-15T11:57:04;96861.38;;;17.85;86.61
72210;BME280;60113;48.762;12.302;2022-10-15T12:02:38;96861.03;;;17.97;86.67
72210;BME280;60113;48.762;12.302;2022-10-15T12:07:56;96858.22;;;18.22;85.87
72210;BME280;60113;48.762;12.302;2022-10-15T12:13:25;96853.47;;;18.09;81.38
72210;BME280;60113;48.762;12.302;2022-10-15T12:16:38;96861.03;;;17.97;79.78
72210;BME280;60113;48.762;12.302;2022-10-15T12:19:15;96862.06;;;17.87;80.59
72210;BME280;60113;48.762;12.302;2022-10-15T12:27:26;96857.25;;;17.83;80.95
72210;BME280;60113;48.762;12.302;2022-10-15T12:32:37;96865.31;;;17.98;80.26
72210;BME280;60113;48.762;12.302;2022-10-15T12:35:52;96866.00;;;18.00;85.03
72210;BME280;60113;48.762;12.302;2022-10-15T12:37:51;96864.53;;;17.89;84.32
72210;BME280;60113;48.762;12.302;2022-10-15T12:40:38;96861.13;;;17.72;79.52
72210;BME280;60113;48.762;12.302;2022-10-15T12:43:15;96865.22;;;17.83;81.03
72210;BME280;60113;48.762;12.302;2022-10-15T12:45:50;96866.44;;;18.12;83.26
72210;BME280;60113;48.762;12.302;2022-10-15T12:50:48;96862.88;;;18.52;85.02
72210;BME280;60113;48.762;12.302;2022-10-15T12:58:38;96868.50;;;18.25;79.59
72210;BME280;60113;48.762;12.302;2022-10-15T13:03:51;96876.47;;;18.33;80.95
72210;BME280;60113;48.762;12.302;2022-10-15T13:11:43;96874.28;;;18.60;78.96
72210;BME280;60113;48.762;12.302;2022-10-15T13:14:30;96874.53;;;18.51;77.48
72210;BME280;60113;48.762;12.302;2022-10-15T13:16:56;96871.16;;;18.57;81.58
72210;BME280;60113;48.762;12.302;2022-10-15T13:19:30;96869.69;;;18.54;79.40
72210;BME280;60113;48.762;12.302;2022-10-15T13:22:00;96868.72;;;18.47;78.89
72210;BME280;60113;48.762;12.302;2022-10-15T13:24:28;96876.28;;;18.35;81.38
72210;BME280;60113;48.762;12.302;2022-10-15T13:26:56;96876.66;;;18.23;78.91
72210;BME280;60113;48.762;12.302;2022-10-15T13:29:25;96883.03;;;18.14;81.74
72210;BME280;60113;48.762;12.302;2022-10-15T13:31:54;96877.09;;;18.12;80.68
72210;BME280;60113;48.762;12.302;2022-10-15T13:34:31;96876.56;;;18.08;78.02
72210;BME280;60113;48.762;12.302;2022-10-15T13:37:01;96871.75;;;18.12;81.23
72210;BME280;60113;48.762;12.302;2022-10-15T13:39:32;96872.75;;;18.11;81.26
72210;BME280;60113;48.762;12.302;2022-10-15T13:42:07;96880.38;;;18.14;79.96
72210;BME280;60113;48.762;12.302;2022-10-15T13:44:33;96874.84;;;18.24;81.37
72210;BME280;60113;48.762;12.302;2022-10-15T13:46:58;96871.31;;;18.32;81.98
72210;BME280;60113;48.762;12.302;2022-10-15T13:49:24;96865.25;;;18.46;82.19
72210;BME280;60113;48.762;12.302;2022-10-15T13:51:51;96874.13;;;18.62;81.87
72210;BME280;60113;48.762;12.302;2022-10-15T13:54:23;96874.03;;;18.70;78.84
72210;BME280;60113;48.762;12.302;2022-10-15T13:56:59;96883.25;;;18.83;79.18
72210;BME280;60113;48.762;12.302;2022-10-15T13:59:30;96877.41;;;19.11;80.29
72210;BME280;60113;48.762;12.302;2022-10-15T14:01:58;96877.72;;;19.31;77.54
72210;BME280;60113;48.762;12.302;2022-10-15T14:04:27;96879.00;;;19.35;81.67
72210;BME280;60113;48.762;12.302;2022-10-15T14:07:01;96878.63;;;19.23;79.14
72210;BME280;60113;48.762;12.302;2022-10-15T14:11:55;96880.44;;;18.99;81.26
72210;BME280;60113;48.762;12.302;2022-10-15T14:16:53;96879.75;;;18.82;80.63
72210;BME280;60113;48.762;12.302;2022-10-15T14:19:21;96885.00;;;18.76;80.88
72210;BME280;60113;48.762;12.302;2022-10-15T14:22:03;96877.75;;;18.61;76.84
72210;BME280;60113;48.762;12.302;2022-10-15T14:24:36;96882.81;;;18.56;80.65
72210;BME280;60113;48.762;12.302;2022-10-15T14:27:12;96887.75;;;18.35;78.93
72210;BME280;60113;48.762;12.302;2022-10-15T14:29:42;96887.03;;;18.18;79.92
72210;BME280;60113;48.762;12.302;2022-10-15T14:32:24;96887.88;;;18.02;78.15
72210;BME280;60113;48.762;12.302;2022-10-15T14:43:06;96882.72;;;17.60;79.19
72210;BME280;60113;48.762;12.302;2022-10-15T14:48:20;96885.28;;;17.45;80.04
72210;BME280;60113;48.762;12.302;2022-10-15T14:50:47;96881.94;;;17.43;80.75
72210;BME280;60113;48.762;12.302;2022-10-15T14:53:27;96880.63;;;17.39;79.81
72210;BME280;60113;48.762;12.302;2022-10-15T14:55:59;96875.84;;;17.34;80.26